sensor_id;sensor_type;location;lat;lon;timestamp;pressure;altitude;pressure_sealevel;temperature;humidity
76940;BME280;65885;55.848;35.916;2023-06-14T00:02:18;99695.28;;;8.05;56.20
76940;BME280;65885;55.848;35.916;2023-06-14T00:04:45;99694.50;;;8.02;54.96
76940;BME280;65885;55.848;35.916;2023-06-14T00:07:14;99693.66;;;8.00;53.38
76940;BME280;65885;55.848;35.916;2023-06-14T00:09:42;99701.56;;;7.98;52.34
76940;BME280;65885;55.848;35.916;2023-06-14T00:12:10;99694.63;;;7.97;52.77
76940;BME280;65885;55.848;35.916;2023-06-14T00:14:37;99707.69;;;7.97;55.25
76940;BME280;65885;55.848;35.916;2023-06-14T00:17:04;99707.72;;;7.96;57.80
76940;BME280;65885;55.848;35.916;2023-06-14T00:19:34;99705.97;;;7.96;59.83
76940;BME280;65885;55.848;35.916;2023-06-14T00:22:02;99711.06;;;8.01;59.11
76940;BME280;65885;55.848;35.916;2023-06-14T00:24:29;99709.94;;;8.11;57.98
76940;BME280;65885;55.848;35.916;2023-06-14T00:26:57;99704.44;;;8.20;56.67
76940;BME280;65885;55.848;35.916;2023-06-14T00:29:24;99706.75;;;8.31;56.02
76940;BME280;65885;55.848;35.916;2023-06-14T00:31:51;99717.84;;;8.41;59.07
76940;BME280;65885;55.848;35.916;2023-06-14T00:34:19;99711.63;;;8.45;57.76
76940;BME280;65885;55.848;35.916;2023-06-14T00:36:47;99707.31;;;8.44;55.22
76940;BME280;65885;55.848;35.916;2023-06-14T00:39:15;99707.34;;;8.42;54.75
76940;BME280;65885;55.848;35.916;2023-06-14T00:41:42;99706.56;;;8.39;58.37
76940;BME280;65885;55.848;35.916;2023-06-14T00:44:11;99709.34;;;8.32;58.89
76940;BME280;65885;55.848;35.916;2023-06-14T00:46:38;99708.69;;;8.24;59.42
76940;BME280;65885;55.848;35.916;2023-06-14T00:49:06;99712.34;;;8.19;61.62
76940;BME280;65885;55.848;35.916;2023-06-14T00:51:33;99714.25;;;8.12;61.54
76940;BME280;65885;55.848;35.916;2023-06-14T00:54:02;99710.13;;;8.03;58.03
76940;BME280;65885;55.848;35.916;2023-06-14T00:56:30;99711.09;;;7.99;54.72
76940;BME280;65885;55.848;35.916;2023-06-14T00:58:57;99707.63;;;7.99;54.96
76940;BME280;65885;55.848;35.916;2023-06-14T01:01:25;99709.47;;;7.95;55.97
76940;BME280;65885;55.848;35.916;2023-06-14T01:03:54;99708.66;;;7.93;59.04
76940;BME280;65885;55.848;35.916;2023-06-14T01:06:29;99708.84;;;7.86;60.34
76940;BME280;65885;55.848;35.916;2023-06-14T01:09:07;99705.53;;;7.81;58.63
76940;BME280;65885;55.848;35.916;2023-06-14T01:11:43;99704.72;;;7.77;56.51
76940;BME280;65885;55.848;35.916;2023-06-14T01:14:14;99703.91;;;7.75;56.57
76940;BME280;65885;55.848;35.916;2023-06-14T01:16:43;99703.09;;;7.73;57.32
76940;BME280;65885;55.848;35.916;2023-06-14T01:19:12;99700.53;;;7.71;58.24
76940;BME280;65885;55.848;35.916;2023-06-14T01:21:39;99701.31;;;7.75;58.71
76940;BME280;65885;55.848;35.916;2023-06-14T01:24:10;99705.47;;;7.82;58.80
76940;BME280;65885;55.848;35.916;2023-06-14T01:26:38;99711.34;;;7.90;56.43
76940;BME280;65885;55.848;35.916;2023-06-14T01:29:12;99705.84;;;8.01;54.54
76940;BME280;65885;55.848;35.916;2023-06-14T01:31:42;99705.50;;;8.13;54.63
76940;BME280;65885;55.848;35.916;2023-06-14T01:34:11;99702.69;;;8.21;55.16
76940;BME280;65885;55.848;35.916;2023-06-14T01:36:41;99704.19;;;8.29;54.73
76940;BME280;65885;55.848;35.916;2023-06-14T01:39:10;99708.50;;;8.32;54.74
76940;BME280;65885;55.848;35.916;2023-06-14T01:41:39;99711.97;;;8.31;55.44
76940;BME280;65885;55.848;35.916;2023-06-14T01:44:07;99709.56;;;8.25;56.49
76940;BME280;65885;55.848;35.916;2023-06-14T01:46:35;99721.94;;;8.18;57.58
76940;BME280;65885;55.848;35.916;2023-06-14T01:49:03;99725.59;;;8.11;56.31
76940;BME280;65885;55.848;35.916;2023-06-14T01:51:31;99721.38;;;8.05;55.86
76940;BME280;65885;55.848;35.916;2023-06-14T01:53:58;99725.00;;;8.01;56.55
76940;BME280;65885;55.848;35.916;2023-06-14T01:56:27;99722.44;;;7.98;57.76
76940;BME280;65885;55.848;35.916;2023-06-14T01:58:55;99722.59;;;7.94;58.53
76940;BME280;65885;55.848;35.916;2023-06-14T02:01:22;99713.06;;;7.91;58.64
76940;BME280;65885;55.848;35.916;2023-06-14T02:03:49;99712.31;;;7.88;58.74
76940;BME280;65885;55.848;35.916;2023-06-14T02:06:17;99714.06;;;7.86;59.46
76940;BME280;65885;55.848;35.916;2023-06-14T02:08:44;99714.97;;;7.85;58.72
76940;BME280;65885;55.848;35.916;2023-06-14T02:11:11;99720.25;;;7.83;56.22
76940;BME280;65885;55.848;35.916;2023-06-14T02:13:40;99715.81;;;7.85;57.24
76940;BME280;65885;55.848;35.916;2023-06-14T02:16:09;99712.34;;;7.85;58.01
76940;BME280;65885;55.848;35.916;2023-06-14T02:18:36;99716.63;;;7.89;60.26
76940;BME280;65885;55.848;35.916;2023-06-14T02:21:24;99717.28;;;7.97;63.04
76940;BME280;65885;55.848;35.916;2023-06-14T02:23:51;99713.50;;;8.09;65.43
76940;BME280;65885;55.848;35.916;2023-06-14T02:26:19;99717.47;;;8.22;66.36
76940;BME280;65885;55.848;35.916;2023-06-14T02:28:48;99723.16;;;8.38;65.36
76940;BME280;65885;55.848;35.916;2023-06-14T02:31:15;99721.00;;;8.52;63.42
76940;BME280;65885;55.848;35.916;2023-06-14T02:33:42;99720.50;;;8.69;61.08
76940;BME280;65885;55.848;35.916;2023-06-14T02:36:10;99724.50;;;8.82;58.30
76940;BME280;65885;55.848;35.916;2023-06-14T02:38:37;99725.00;;;8.95;58.23
76940;BME280;65885;55.848;35.916;2023-06-14T02:41:04;99716.97;;;9.01;57.93
76940;BME280;65885;55.848;35.916;2023-06-14T02:43:32;99718.56;;;9.05;58.64
76940;BME280;65885;55.848;35.916;2023-06-14T02:46:01;99723.75;;;9.06;59.61
76940;BME280;65885;55.848;35.916;2023-06-14T02:48:28;99731.59;;;9.06;59.52
76940;BME280;65885;55.848;35.916;2023-06-14T02:50:55;99724.63;;;9.07;58.14
76940;BME280;65885;55.848;35.916;2023-06-14T02:53:23;99728.03;;;9.09;58.33
76940;BME280;65885;55.848;35.916;2023-06-14T02:55:50;99719.28;;;9.10;58.88
76940;BME280;65885;55.848;35.916;2023-06-14T02:58:18;99729.75;;;9.10;57.97
76940;BME280;65885;55.848;35.916;2023-06-14T03:00:45;99735.84;;;9.10;57.28
76940;BME280;65885;55.848;35.916;2023-06-14T03:03:14;99733.97;;;9.14;58.08
76940;BME280;65885;55.848;35.916;2023-06-14T03:05:44;99734.81;;;9.16;58.45
76940;BME280;65885;55.848;35.916;2023-06-14T03:08:13;99731.16;;;9.20;58.31
76940;BME280;65885;55.848;35.916;2023-06-14T03:10:42;99728.38;;;9.26;58.73
76940;BME280;65885;55.848;35.916;2023-06-14T03:13:10;99729.81;;;9.35;59.68
76940;BME280;65885;55.848;35.916;2023-06-14T03:15:38;99739.16;;;9.43;61.50
76940;BME280;65885;55.848;35.916;2023-06-14T03:18:07;99740.72;;;9.49;61.92
76940;BME280;65885;55.848;35.916;2023-06-14T03:20:36;99736.13;;;9.56;62.24
76940;BME280;65885;55.848;35.916;2023-06-14T03:23:05;99736.63;;;9.67;61.73
76940;BME280;65885;55.848;35.916;2023-06-14T03:25:32;99735.25;;;9.83;61.45
76940;BME280;65885;55.848;35.916;2023-06-14T03:28:01;99736.31;;;10.02;60.69
76940;BME280;65885;55.848;35.916;2023-06-14T03:30:33;99740.91;;;10.22;61.17
76940;BME280;65885;55.848;35.916;2023-06-14T03:33:00;99742.00;;;10.40;60.47
76940;BME280;65885;55.848;35.916;2023-06-14T03:35:28;99738.66;;;10.60;60.43
76940;BME280;65885;55.848;35.916;2023-06-14T03:37:56;99742.28;;;10.81;60.55
76940;BME280;65885;55.848;35.916;2023-06-14T03:40:24;99737.16;;;11.00;60.78
76940;BME280;65885;55.848;35.916;2023-06-14T03:42:53;99737.34;;;11.17;60.17
76940;BME280;65885;55.848;35.916;2023-06-14T03:45:21;99736.75;;;11.32;59.43
76940;BME280;65885;55.848;35.916;2023-06-14T03:47:48;99733.72;;;11.43;59.26
76940;BME280;65885;55.848;35.916;2023-06-14T03:50:16;99737.72;;;11.52;60.06
76940;BME280;65885;55.848;35.916;2023-06-14T03:52:43;99742.75;;;11.58;60.67
76940;BME280;65885;55.848;35.916;2023-06-14T03:55:12;99737.25;;;11.64;59.81
76940;BME280;65885;55.848;35.916;2023-06-14T03:57:41;99738.75;;;11.70;59.85
76940;BME280;65885;55.848;35.916;2023-06-14T04:00:10;99732.38;;;11.75;59.88
76940;BME280;65885;55.848;35.916;2023-06-14T04:02:38;99739.06;;;11.84;59.35
76940;BME280;65885;55.848;35.916;2023-06-14T04:05:06;99729.00;;;11.93;60.27
76940;BME280;65885;55.848;35.916;2023-06-14T04:07:34;99735.69;;;12.02;60.15
76940;BME280;65885;55.848;35.916;2023-06-14T04:10:06;99730.09;;;12.10;60.00
76940;BME280;65885;55.848;35.916;2023-06-14T04:12:36;99738.50;;;12.18;60.38
76940;BME280;65885;55.848;35.916;2023-06-14T04:15:04;99731.97;;;12.27;59.72
76940;BME280;65885;55.848;35.916;2023-06-14T04:17:32;99737.75;;;12.35;59.77
76940;BME280;65885;55.848;35.916;2023-06-14T04:19:59;99736.41;;;12.45;59.61
76940;BME280;65885;55.848;35.916;2023-06-14T04:22:30;99731.63;;;12.55;59.54
76940;BME280;65885;55.848;35.916;2023-06-14T04:24:58;99739.03;;;12.65;58.27
76940;BME280;65885;55.848;35.916;2023-06-14T04:27:26;99742.81;;;12.78;59.71
76940;BME280;65885;55.848;35.916;2023-06-14T04:29:55;99732.50;;;12.93;60.03
76940;BME280;65885;55.848;35.916;2023-06-14T04:32:26;99730.97;;;13.06;59.90
76940;BME280;65885;55.848;35.916;2023-06-14T04:34:55;99731.22;;;13.20;59.26
76940;BME280;65885;55.848;35.916;2023-06-14T04:37:23;99742.88;;;13.33;58.54
76940;BME280;65885;55.848;35.916;2023-06-14T04:39:50;99736.09;;;13.47;58.02
76940;BME280;65885;55.848;35.916;2023-06-14T04:42:17;99728.38;;;13.61;58.00
76940;BME280;65885;55.848;35.916;2023-06-14T04:44:46;99736.50;;;13.74;57.05
76940;BME280;65885;55.848;35.916;2023-06-14T04:47:16;99745.44;;;13.88;56.32
76940;BME280;65885;55.848;35.916;2023-06-14T04:49:44;99745.69;;;14.01;56.69
76940;BME280;65885;55.848;35.916;2023-06-14T04:52:13;99751.88;;;14.18;56.54
76940;BME280;65885;55.848;35.916;2023-06-14T04:54:41;99745.91;;;14.31;56.46
76940;BME280;65885;55.848;35.916;2023-06-14T04:57:09;99747.78;;;14.47;56.22
76940;BME280;65885;55.848;35.916;2023-06-14T04:59:40;99744.41;;;14.60;56.75
76940;BME280;65885;55.848;35.916;2023-06-14T05:02:07;99749.72;;;14.76;56.37
76940;BME280;65885;55.848;35.916;2023-06-14T05:04:36;99753.00;;;14.97;55.69
76940;BME280;65885;55.848;35.916;2023-06-14T05:07:07;99743.72;;;15.21;55.29
76940;BME280;65885;55.848;35.916;2023-06-14T05:09:34;99748.22;;;15.51;55.07
76940;BME280;65885;55.848;35.916;2023-06-14T05:12:03;99740.50;;;15.78;54.22
76940;BME280;65885;55.848;35.916;2023-06-14T05:14:30;99742.50;;;16.04;53.79
76940;BME280;65885;55.848;35.916;2023-06-14T05:16:58;99748.03;;;16.30;53.54
76940;BME280;65885;55.848;35.916;2023-06-14T05:19:25;99739.63;;;16.52;52.84
76940;BME280;65885;55.848;35.916;2023-06-14T05:21:54;99743.84;;;16.70;52.34
76940;BME280;65885;55.848;35.916;2023-06-14T05:24:22;99735.03;;;16.84;52.10
76940;BME280;65885;55.848;35.916;2023-06-14T05:26:49;99744.75;;;16.98;51.83
76940;BME280;65885;55.848;35.916;2023-06-14T05:29:17;99736.78;;;17.12;51.55
76940;BME280;65885;55.848;35.916;2023-06-14T05:31:44;99741.31;;;17.24;51.46
76940;BME280;65885;55.848;35.916;2023-06-14T05:34:11;99732.44;;;17.38;50.90
76940;BME280;65885;55.848;35.916;2023-06-14T05:36:38;99731.44;;;17.53;50.88
76940;BME280;65885;55.848;35.916;2023-06-14T05:39:07;99726.94;;;17.68;50.56
76940;BME280;65885;55.848;35.916;2023-06-14T05:41:36;99740.84;;;17.86;50.66
76940;BME280;65885;55.848;35.916;2023-06-14T05:44:03;99723.88;;;18.01;50.17
76940;BME280;65885;55.848;35.916;2023-06-14T05:46:30;99725.41;;;18.18;50.00
76940;BME280;65885;55.848;35.916;2023-06-14T05:48:58;99729.53;;;18.35;49.48
76940;BME280;65885;55.848;35.916;2023-06-14T05:51:25;99733.47;;;18.54;49.52
76940;BME280;65885;55.848;35.916;2023-06-14T05:53:52;99738.06;;;18.78;48.95
76940;BME280;65885;55.848;35.916;2023-06-14T05:56:21;99737.81;;;19.06;48.38
76940;BME280;65885;55.848;35.916;2023-06-14T05:58:49;99742.47;;;19.39;48.35
76940;BME280;65885;55.848;35.916;2023-06-14T06:01:16;99742.78;;;19.72;47.32
76940;BME280;65885;55.848;35.916;2023-06-14T06:03:44;99733.97;;;20.06;46.79
76940;BME280;65885;55.848;35.916;2023-06-14T06:06:13;99741.81;;;20.43;46.47
76940;BME280;65885;55.848;35.916;2023-06-14T06:08:40;99738.00;;;20.81;45.92
76940;BME280;65885;55.848;35.916;2023-06-14T06:11:08;99737.47;;;21.20;45.95
76940;BME280;65885;55.848;35.916;2023-06-14T06:13:38;99740.44;;;21.60;44.54
76940;BME280;65885;55.848;35.916;2023-06-14T06:16:06;99746.56;;;22.04;44.21
76940;BME280;65885;55.848;35.916;2023-06-14T06:18:34;99733.25;;;22.46;44.30
76940;BME280;65885;55.848;35.916;2023-06-14T06:21:01;99742.19;;;22.87;43.45
76940;BME280;65885;55.848;35.916;2023-06-14T06:23:29;99734.44;;;23.24;42.67
76940;BME280;65885;55.848;35.916;2023-06-14T06:25:56;99744.66;;;23.59;42.12
76940;BME280;65885;55.848;35.916;2023-06-14T06:28:24;99740.44;;;23.95;41.19
76940;BME280;65885;55.848;35.916;2023-06-14T06:30:53;99737.31;;;24.29;41.36
76940;BME280;65885;55.848;35.916;2023-06-14T06:33:21;99741.38;;;24.62;39.10
76940;BME280;65885;55.848;35.916;2023-06-14T06:35:49;99733.78;;;24.95;38.71
76940;BME280;65885;55.848;35.916;2023-06-14T06:38:16;99727.13;;;25.26;38.38
76940;BME280;65885;55.848;35.916;2023-06-14T06:40:44;99726.09;;;25.55;37.27
76940;BME280;65885;55.848;35.916;2023-06-14T06:43:12;99725.19;;;25.82;36.63
76940;BME280;65885;55.848;35.916;2023-06-14T06:45:40;99727.13;;;26.07;36.00
76940;BME280;65885;55.848;35.916;2023-06-14T06:48:08;99734.53;;;26.31;36.46
76940;BME280;65885;55.848;35.916;2023-06-14T06:50:36;99737.25;;;26.57;36.20
76940;BME280;65885;55.848;35.916;2023-06-14T06:53:04;99734.16;;;26.78;35.49
76940;BME280;65885;55.848;35.916;2023-06-14T06:55:32;99736.59;;;26.97;35.41
76940;BME280;65885;55.848;35.916;2023-06-14T06:58:00;99730.31;;;27.15;34.55
76940;BME280;65885;55.848;35.916;2023-06-14T07:00:30;99730.34;;;27.23;33.21
76940;BME280;65885;55.848;35.916;2023-06-14T07:02:57;99732.41;;;27.29;33.04
76940;BME280;65885;55.848;35.916;2023-06-14T07:05:27;99729.72;;;27.37;33.20
76940;BME280;65885;55.848;35.916;2023-06-14T07:07:54;99720.28;;;27.41;33.12
76940;BME280;65885;55.848;35.916;2023-06-14T07:10:22;99721.31;;;27.40;31.78
76940;BME280;65885;55.848;35.916;2023-06-14T07:12:50;99721.97;;;27.42;32.57
76940;BME280;65885;55.848;35.916;2023-06-14T07:15:17;99708.50;;;27.42;31.04
76940;BME280;65885;55.848;35.916;2023-06-14T07:17:45;99713.38;;;27.30;30.66
76940;BME280;65885;55.848;35.916;2023-06-14T07:20:13;99712.16;;;27.17;29.46
76940;BME280;65885;55.848;35.916;2023-06-14T07:22:43;99706.06;;;27.06;29.74
76940;BME280;65885;55.848;35.916;2023-06-14T07:25:11;99712.53;;;26.96;29.15
76940;BME280;65885;55.848;35.916;2023-06-14T07:27:40;99710.34;;;26.91;29.58
76940;BME280;65885;55.848;35.916;2023-06-14T07:30:09;99714.69;;;26.84;28.86
76940;BME280;65885;55.848;35.916;2023-06-14T07:32:36;99712.00;;;26.84;28.73
76940;BME280;65885;55.848;35.916;2023-06-14T07:35:04;99717.03;;;26.87;28.50
76940;BME280;65885;55.848;35.916;2023-06-14T07:37:32;99715.72;;;26.91;28.18
76940;BME280;65885;55.848;35.916;2023-06-14T07:40:01;99717.75;;;26.97;28.90
76940;BME280;65885;55.848;35.916;2023-06-14T07:42:33;99709.44;;;27.08;28.92
76940;BME280;65885;55.848;35.916;2023-06-14T07:45:01;99712.81;;;27.19;28.35
76940;BME280;65885;55.848;35.916;2023-06-14T07:47:30;99708.81;;;27.31;28.85
76940;BME280;65885;55.848;35.916;2023-06-14T07:49:58;99714.59;;;27.44;28.40
76940;BME280;65885;55.848;35.916;2023-06-14T07:52:26;99713.94;;;27.58;28.92
76940;BME280;65885;55.848;35.916;2023-06-14T07:54:54;99720.53;;;27.72;28.87
76940;BME280;65885;55.848;35.916;2023-06-14T07:57:22;99723.25;;;27.88;29.06
76940;BME280;65885;55.848;35.916;2023-06-14T07:59:50;99723.09;;;28.06;29.44
76940;BME280;65885;55.848;35.916;2023-06-14T08:02:17;99717.34;;;28.26;28.33
76940;BME280;65885;55.848;35.916;2023-06-14T08:04:45;99715.81;;;28.47;28.07
76940;BME280;65885;55.848;35.916;2023-06-14T08:07:12;99711.91;;;28.66;28.47
76940;BME280;65885;55.848;35.916;2023-06-14T08:09:39;99719.75;;;28.92;27.84
76940;BME280;65885;55.848;35.916;2023-06-14T08:12:08;99720.53;;;29.09;27.56
76940;BME280;65885;55.848;35.916;2023-06-14T08:14:39;99719.13;;;29.21;26.76
76940;BME280;65885;55.848;35.916;2023-06-14T08:17:07;99721.47;;;29.33;26.20
76940;BME280;65885;55.848;35.916;2023-06-14T08:19:34;99729.13;;;29.52;27.43
76940;BME280;65885;55.848;35.916;2023-06-14T08:22:02;99724.16;;;29.64;25.95
76940;BME280;65885;55.848;35.916;2023-06-14T08:24:30;99725.41;;;29.76;26.19
76940;BME280;65885;55.848;35.916;2023-06-14T08:26:58;99723.91;;;29.96;26.88
76940;BME280;65885;55.848;35.916;2023-06-14T08:29:26;99719.88;;;30.15;26.23
76940;BME280;65885;55.848;35.916;2023-06-14T08:31:58;99715.44;;;30.37;26.56
76940;BME280;65885;55.848;35.916;2023-06-14T08:34:26;99717.63;;;30.56;26.49
76940;BME280;65885;55.848;35.916;2023-06-14T08:36:53;99719.88;;;30.82;26.98
76940;BME280;65885;55.848;35.916;2023-06-14T08:39:20;99720.25;;;30.94;24.32
76940;BME280;65885;55.848;35.916;2023-06-14T08:41:48;99713.50;;;31.05;24.88
76940;BME280;65885;55.848;35.916;2023-06-14T08:44:16;99709.22;;;31.10;24.27
76940;BME280;65885;55.848;35.916;2023-06-14T08:46:43;99710.25;;;31.09;24.27
76940;BME280;65885;55.848;35.916;2023-06-14T08:49:13;99711.28;;;31.23;24.79
76940;BME280;65885;55.848;35.916;2023-06-14T08:51:40;99701.03;;;31.40;24.94
76940;BME280;65885;55.848;35.916;2023-06-14T08:54:10;99692.22;;;31.53;24.12
76940;BME280;65885;55.848;35.916;2023-06-14T08:56:39;99691.56;;;31.51;23.36
76940;BME280;65885;55.848;35.916;2023-06-14T08:59:08;99697.38;;;31.47;23.48
76940;BME280;65885;55.848;35.916;2023-06-14T09:01:36;99693.81;;;31.47;23.18
76940;BME280;65885;55.848;35.916;2023-06-14T09:04:04;99691.94;;;31.47;23.96
76940;BME280;65885;55.848;35.916;2023-06-14T09:06:33;99689.75;;;31.58;24.53
76940;BME280;65885;55.848;35.916;2023-06-14T09:09:02;99693.78;;;31.62;23.85
76940;BME280;65885;55.848;35.916;2023-06-14T09:11:30;99684.25;;;31.72;24.44
76940;BME280;65885;55.848;35.916;2023-06-14T09:13:58;99683.59;;;31.85;23.68
76940;BME280;65885;55.848;35.916;2023-06-14T09:16:25;99677.38;;;31.91;22.27
76940;BME280;65885;55.848;35.916;2023-06-14T09:18:54;99674.59;;;31.85;21.75
76940;BME280;65885;55.848;35.916;2023-06-14T09:21:21;99664.78;;;31.84;22.00
76940;BME280;65885;55.848;35.916;2023-06-14T09:23:50;99678.38;;;31.84;22.71
76940;BME280;65885;55.848;35.916;2023-06-14T09:26:19;99675.00;;;31.82;22.52
76940;BME280;65885;55.848;35.916;2023-06-14T09:28:47;99680.59;;;31.80;23.08
76940;BME280;65885;55.848;35.916;2023-06-14T09:31:15;99670.44;;;31.89;23.45
76940;BME280;65885;55.848;35.916;2023-06-14T09:33:44;99671.41;;;32.02;23.07
76940;BME280;65885;55.848;35.916;2023-06-14T09:36:16;99666.72;;;32.18;22.66
76940;BME280;65885;55.848;35.916;2023-06-14T09:38:53;99664.16;;;32.10;20.89
76940;BME280;65885;55.848;35.916;2023-06-14T09:41:21;99662.88;;;32.06;22.05
76940;BME280;65885;55.848;35.916;2023-06-14T09:43:57;99662.53;;;32.15;22.69
76940;BME280;65885;55.848;35.916;2023-06-14T09:46:27;99649.38;;;32.19;21.66
76940;BME280;65885;55.848;35.916;2023-06-14T09:48:55;99658.38;;;32.19;22.57
76940;BME280;65885;55.848;35.916;2023-06-14T09:51:23;99657.41;;;32.27;22.15
76940;BME280;65885;55.848;35.916;2023-06-14T09:53:55;99656.47;;;32.41;22.68
76940;BME280;65885;55.848;35.916;2023-06-14T09:56:27;99654.63;;;32.48;21.53
76940;BME280;65885;55.848;35.916;2023-06-14T09:58:56;99653.63;;;32.56;21.98
76940;BME280;65885;55.848;35.916;2023-06-14T10:01:24;99654.28;;;32.65;21.34
76940;BME280;65885;55.848;35.916;2023-06-14T10:03:57;99646.19;;;32.71;20.69
76940;BME280;65885;55.848;35.916;2023-06-14T10:06:29;99648.91;;;32.71;21.81
76940;BME280;65885;55.848;35.916;2023-06-14T10:08:59;99652.47;;;32.78;21.74
76940;BME280;65885;55.848;35.916;2023-06-14T10:11:27;99647.50;;;32.82;20.96
76940;BME280;65885;55.848;35.916;2023-06-14T10:13:55;99650.00;;;32.83;20.75
76940;BME280;65885;55.848;35.916;2023-06-14T10:16:27;99642.91;;;32.82;20.93
76940;BME280;65885;55.848;35.916;2023-06-14T10:19:02;99648.34;;;32.82;21.29
76940;BME280;65885;55.848;35.916;2023-06-14T10:21:40;99645.88;;;32.88;21.07
76940;BME280;65885;55.848;35.916;2023-06-14T10:24:13;99648.84;;;32.99;21.02
76940;BME280;65885;55.848;35.916;2023-06-14T10:26:50;99632.34;;;33.07;20.15
76940;BME280;65885;55.848;35.916;2023-06-14T10:29:18;99636.03;;;32.87;18.45
76940;BME280;65885;55.848;35.916;2023-06-14T10:31:46;99629.53;;;32.81;20.16
76940;BME280;65885;55.848;35.916;2023-06-14T10:34:22;99638.50;;;32.81;20.34
76940;BME280;65885;55.848;35.916;2023-06-14T10:37:00;99634.75;;;32.82;21.07
76940;BME280;65885;55.848;35.916;2023-06-14T10:39:30;99634.16;;;32.87;20.09
76940;BME280;65885;55.848;35.916;2023-06-14T10:41:58;99627.09;;;32.99;20.16
76940;BME280;65885;55.848;35.916;2023-06-14T10:44:43;99619.59;;;33.15;20.00
76940;BME280;65885;55.848;35.916;2023-06-14T10:47:21;99618.81;;;33.34;20.83
76940;BME280;65885;55.848;35.916;2023-06-14T10:49:51;99618.03;;;33.53;20.43
76940;BME280;65885;55.848;35.916;2023-06-14T10:52:29;99605.69;;;33.77;20.51
76940;BME280;65885;55.848;35.916;2023-06-14T10:55:06;99607.78;;;33.88;19.88
76940;BME280;65885;55.848;35.916;2023-06-14T10:57:38;99598.16;;;33.99;19.92
76940;BME280;65885;55.848;35.916;2023-06-14T11:00:07;99602.56;;;34.00;18.78
76940;BME280;65885;55.848;35.916;2023-06-14T11:03:11;99597.94;;;33.87;17.86
76940;BME280;65885;55.848;35.916;2023-06-14T11:05:51;99602.78;;;33.79;18.98
76940;BME280;65885;55.848;35.916;2023-06-14T11:08:31;99593.34;;;33.81;19.33
76940;BME280;65885;55.848;35.916;2023-06-14T11:11:08;99590.00;;;33.66;19.55
76940;BME280;65885;55.848;35.916;2023-06-14T11:13:38;99588.94;;;33.60;19.51
76940;BME280;65885;55.848;35.916;2023-06-14T11:16:10;99588.94;;;33.60;20.10
76940;BME280;65885;55.848;35.916;2023-06-14T11:18:39;99591.22;;;33.77;19.08
76940;BME280;65885;55.848;35.916;2023-06-14T11:21:06;99585.19;;;33.94;19.44
76940;BME280;65885;55.848;35.916;2023-06-14T11:23:34;99588.53;;;34.03;19.55
76940;BME280;65885;55.848;35.916;2023-06-14T11:26:03;99585.16;;;34.08;18.89
76940;BME280;65885;55.848;35.916;2023-06-14T11:28:40;99583.69;;;34.18;19.61
76940;BME280;65885;55.848;35.916;2023-06-14T11:31:09;99583.22;;;34.35;19.37
76940;BME280;65885;55.848;35.916;2023-06-14T11:33:38;99584.25;;;34.47;19.58
76940;BME280;65885;55.848;35.916;2023-06-14T11:36:06;99585.50;;;34.51;18.59
76940;BME280;65885;55.848;35.916;2023-06-14T11:38:35;99586.09;;;34.53;19.27
76940;BME280;65885;55.848;35.916;2023-06-14T11:41:03;99587.56;;;34.62;19.05
76940;BME280;65885;55.848;35.916;2023-06-14T11:43:31;99583.31;;;34.73;18.23
76940;BME280;65885;55.848;35.916;2023-06-14T11:46:02;99583.94;;;34.68;18.64
76940;BME280;65885;55.848;35.916;2023-06-14T11:48:36;99571.44;;;34.54;18.94
76940;BME280;65885;55.848;35.916;2023-06-14T11:51:04;99574.41;;;34.39;19.07
76940;BME280;65885;55.848;35.916;2023-06-14T11:53:32;99571.50;;;34.28;18.80
76940;BME280;65885;55.848;35.916;2023-06-14T11:56:00;99561.22;;;34.30;19.77
76940;BME280;65885;55.848;35.916;2023-06-14T11:58:29;99567.31;;;34.32;18.82
76940;BME280;65885;55.848;35.916;2023-06-14T12:00:56;99568.56;;;34.29;18.61
76940;BME280;65885;55.848;35.916;2023-06-14T12:03:26;99562.69;;;34.32;19.01
76940;BME280;65885;55.848;35.916;2023-06-14T12:06:06;99569.38;;;34.36;19.53
76940;BME280;65885;55.848;35.916;2023-06-14T12:08:34;99568.78;;;34.28;18.99
76940;BME280;65885;55.848;35.916;2023-06-14T12:11:06;99565.25;;;34.14;19.08
76940;BME280;65885;55.848;35.916;2023-06-14T12:13:38;99562.75;;;33.99;19.53
76940;BME280;65885;55.848;35.916;2023-06-14T12:16:07;99557.13;;;33.81;19.19
76940;BME280;65885;55.848;35.916;2023-06-14T12:18:37;99560.47;;;33.76;19.65
76940;BME280;65885;55.848;35.916;2023-06-14T12:21:05;99558.38;;;33.78;19.40
76940;BME280;65885;55.848;35.916;2023-06-14T12:23:42;99564.84;;;33.77;19.31
76940;BME280;65885;55.848;35.916;2023-06-14T12:26:12;99555.66;;;33.65;19.22
76940;BME280;65885;55.848;35.916;2023-06-14T12:28:40;99549.78;;;33.55;19.70
76940;BME280;65885;55.848;35.916;2023-06-14T12:31:08;99551.91;;;33.46;20.28
76940;BME280;65885;55.848;35.916;2023-06-14T12:33:37;99545.56;;;33.32;20.13
76940;BME280;65885;55.848;35.916;2023-06-14T12:36:05;99538.88;;;33.22;19.54
76940;BME280;65885;55.848;35.916;2023-06-14T12:38:33;99545.56;;;33.06;20.31
76940;BME280;65885;55.848;35.916;2023-06-14T12:41:01;99545.53;;;32.93;21.73
76940;BME280;65885;55.848;35.916;2023-06-14T12:43:28;99542.56;;;32.81;20.75
76940;BME280;65885;55.848;35.916;2023-06-14T12:45:56;99552.75;;;32.66;20.72
76940;BME280;65885;55.848;35.916;2023-06-14T12:48:23;99540.78;;;32.53;20.97
76940;BME280;65885;55.848;35.916;2023-06-14T12:50:54;99547.81;;;32.41;20.86
76940;BME280;65885;55.848;35.916;2023-06-14T12:53:21;99533.09;;;32.22;20.62
76940;BME280;65885;55.848;35.916;2023-06-14T12:55:49;99535.78;;;32.16;20.79
76940;BME280;65885;55.848;35.916;2023-06-14T12:58:16;99537.19;;;32.05;20.75
76940;BME280;65885;55.848;35.916;2023-06-14T13:00:45;99527.88;;;31.86;20.94
76940;BME280;65885;55.848;35.916;2023-06-14T13:03:13;99531.91;;;31.69;20.88